sensor_id;sensor_type;location;lat;lon;timestamp;temperature;humidity
44435;DHT22;30138;20.964;105.830;2022-09-09T00:03:27;29.10;99.90
44435;DHT22;30138;20.964;105.830;2022-09-09T00:08:42;29.10;99.90
44435;DHT22;30138;20.964;105.830;2022-09-09T00:13:54;29.10;99.90
44435;DHT22;30138;20.964;105.830;2022-09-09T00:19:10;29.00;99.90
44435;DHT22;30138;20.964;105.830;2022-09-09T00:24:28;29.10;99.90
44435;DHT22;30138;20.964;105.830;2022-09-09T00:29:43;29.10;99.90
44435;DHT22;30138;20.964;105.830;2022-09-09T00:34:55;29.10;99.90
44435;DHT22;30138;20.964;105.830;2022-09-09T00:40:16;29.10;99.90
44435;DHT22;30138;20.964;105.830;2022-09-09T00:45:49;29.10;99.90
44435;DHT22;30138;20.964;105.830;2022-09-09T00:51:17;29.10;99.90
44435;DHT22;30138;20.964;105.830;2022-09-09T00:56:33;29.20;99.90
44435;DHT22;30138;20.964;105.830;2022-09-09T01:01:46;29.10;99.90
44435;DHT22;30138;20.964;105.830;2022-09-09T01:06:59;29.20;99.90
44435;DHT22;30138;20.964;105.830;2022-09-09T01:12:15;29.10;99.90
44435;DHT22;30138;20.964;105.830;2022-09-09T01:17:30;29.10;99.90
44435;DHT22;30138;20.964;105.830;2022-09-09T01:23:02;29.10;99.90
44435;DHT22;30138;20.964;105.830;2022-09-09T01:28:26;29.10;99.90
44435;DHT22;30138;20.964;105.830;2022-09-09T01:33:40;29.10;99.90
44435;DHT22;30138;20.964;105.830;2022-09-09T01:38:49;29.10;99.90
44435;DHT22;30138;20.964;105.830;2022-09-09T01:43:58;29.10;99.90
44435;DHT22;30138;20.964;105.830;2022-09-09T01:49:07;29.10;99.90
44435;DHT22;30138;20.964;105.830;2022-09-09T01:54:15;29.10;99.90
44435;DHT22;30138;20.964;105.830;2022-09-09T01:59:44;29.10;99.90
44435;DHT22;30138;20.964;105.830;2022-09-09T02:04:56;29.10;99.90
44435;DHT22;30138;20.964;105.830;2022-09-09T02:10:11;29.10;99.90
44435;DHT22;30138;20.964;105.830;2022-09-09T02:15:34;29.20;99.90
44435;DHT22;30138;20.964;105.830;2022-09-09T02:20:45;29.10;99.90
44435;DHT22;30138;20.964;105.830;2022-09-09T02:26:01;29.10;99.90
44435;DHT22;30138;20.964;105.830;2022-09-09T02:31:10;29.10;99.90
44435;DHT22;30138;20.964;105.830;2022-09-09T02:36:18;29.10;99.90
44435;DHT22;30138;20.964;105.830;2022-09-09T02:41:28;29.10;99.90
44435;DHT22;30138;20.964;105.830;2022-09-09T02:46:48;29.20;99.90
44435;DHT22;30138;20.964;105.830;2022-09-09T02:52:02;29.10;99.90
44435;DHT22;30138;20.964;105.830;2022-09-09T02:57:16;29.20;99.90
44435;DHT22;30138;20.964;105.830;2022-09-09T03:02:29;29.10;99.90
44435;DHT22;30138;20.964;105.830;2022-09-09T03:07:41;29.10;99.90
44435;DHT22;30138;20.964;105.830;2022-09-09T03:12:50;29.20;99.90
44435;DHT22;30138;20.964;105.830;2022-09-09T03:18:01;29.10;99.90
44435;DHT22;30138;20.964;105.830;2022-09-09T03:23:07;29.10;99.90
44435;DHT22;30138;20.964;105.830;2022-09-09T03:28:13;29.10;99.90
44435;DHT22;30138;20.964;105.830;2022-09-09T03:33:24;29.20;99.90
44435;DHT22;30138;20.964;105.830;2022-09-09T03:38:30;29.20;99.90
44435;DHT22;30138;20.964;105.830;2022-09-09T03:43:36;29.20;99.90
44435;DHT22;30138;20.964;105.830;2022-09-09T03:48:47;29.10;99.90
44435;DHT22;30138;20.964;105.830;2022-09-09T03:53:55;29.10;99.90
44435;DHT22;30138;20.964;105.830;2022-09-09T03:59:04;29.10;99.90
44435;DHT22;30138;20.964;105.830;2022-09-09T04:04:13;29.20;99.90
44435;DHT22;30138;20.964;105.830;2022-09-09T04:09:19;29.20;99.90
44435;DHT22;30138;20.964;105.830;2022-09-09T04:14:26;29.20;99.90
44435;DHT22;30138;20.964;105.830;2022-09-09T04:19:35;29.20;99.90
44435;DHT22;30138;20.964;105.830;2022-09-09T04:24:43;29.20;99.90
44435;DHT22;30138;20.964;105.830;2022-09-09T04:29:52;29.20;99.90
44435;DHT22;30138;20.964;105.830;2022-09-09T04:35:04;29.20;99.90
44435;DHT22;30138;20.964;105.830;2022-09-09T04:40:12;29.20;99.90
44435;DHT22;30138;20.964;105.830;2022-09-09T04:45:19;29.20;99.90
44435;DHT22;30138;20.964;105.830;2022-09-09T04:50:28;29.20;99.90
44435;DHT22;30138;20.964;105.830;2022-09-09T04:55:37;29.20;99.90
44435;DHT22;30138;20.964;105.830;2022-09-09T05:00:44;29.20;99.90
44435;DHT22;30138;20.964;105.830;2022-09-09T05:05:53;29.20;99.90
44435;DHT22;30138;20.964;105.830;2022-09-09T05:11:01;29.20;99.90
44435;DHT22;30138;20.964;105.830;2022-09-09T05:16:08;29.20;99.90
44435;DHT22;30138;20.964;105.830;2022-09-09T05:21:18;29.20;99.90
44435;DHT22;30138;20.964;105.830;2022-09-09T05:26:25;29.30;99.90
44435;DHT22;30138;20.964;105.830;2022-09-09T05:31:33;29.20;99.90
44435;DHT22;30138;20.964;105.830;2022-09-09T05:36:49;29.20;99.90
44435;DHT22;30138;20.964;105.830;2022-09-09T05:41:58;29.30;99.90
44435;DHT22;30138;20.964;105.830;2022-09-09T05:47:06;29.30;99.90
44435;DHT22;30138;20.964;105.830;2022-09-09T05:52:15;29.30;99.90
44435;DHT22;30138;20.964;105.830;2022-09-09T05:57:22;29.30;99.90
44435;DHT22;30138;20.964;105.830;2022-09-09T06:02:29;29.30;99.90
44435;DHT22;30138;20.964;105.830;2022-09-09T06:07:37;29.30;99.90
44435;DHT22;30138;20.964;105.830;2022-09-09T06:12:47;29.30;99.90
44435;DHT22;30138;20.964;105.830;2022-09-09T06:17:55;29.40;99.90
44435;DHT22;30138;20.964;105.830;2022-09-09T06:23:06;29.40;99.90
44435;DHT22;30138;20.964;105.830;2022-09-09T06:28:12;29.40;99.90
44435;DHT22;30138;20.964;105.830;2022-09-09T06:33:20;29.40;99.90
44435;DHT22;30138;20.964;105.830;2022-09-09T06:38:28;29.40;99.90
44435;DHT22;30138;20.964;105.830;2022-09-09T06:43:36;29.40;99.90
44435;DHT22;30138;20.964;105.830;2022-09-09T06:48:43;29.30;99.90
44435;DHT22;30138;20.964;105.830;2022-09-09T06:53:55;29.40;99.90
44435;DHT22;30138;20.964;105.830;2022-09-09T06:59:05;29.40;99.90
44435;DHT22;30138;20.964;105.830;2022-09-09T07:04:18;29.40;99.90
44435;DHT22;30138;20.964;105.830;2022-09-09T07:09:26;29.40;99.90
44435;DHT22;30138;20.964;105.830;2022-09-09T07:14:37;29.40;99.90
44435;DHT22;30138;20.964;105.830;2022-09-09T07:19:45;29.40;99.90
44435;DHT22;30138;20.964;105.830;2022-09-09T07:24:55;29.40;99.90
44435;DHT22;30138;20.964;105.830;2022-09-09T07:30:02;29.40;99.90
44435;DHT22;30138;20.964;105.830;2022-09-09T07:35:10;29.40;99.90
44435;DHT22;30138;20.964;105.830;2022-09-09T07:40:19;29.40;99.90
44435;DHT22;30138;20.964;105.830;2022-09-09T07:45:27;29.40;99.90
44435;DHT22;30138;20.964;105.830;2022-09-09T07:50:38;29.40;99.90
44435;DHT22;30138;20.964;105.830;2022-09-09T07:55:48;29.40;99.90
44435;DHT22;30138;20.964;105.830;2022-09-09T08:00:55;29.40;99.90
44435;DHT22;30138;20.964;105.830;2022-09-09T08:06:03;29.40;99.90
44435;DHT22;30138;20.964;105.830;2022-09-09T08:11:12;29.40;99.90
44435;DHT22;30138;20.964;105.830;2022-09-09T08:16:21;29.40;99.90
44435;DHT22;30138;20.964;105.830;2022-09-09T08:21:30;29.40;99.90
44435;DHT22;30138;20.964;105.830;2022-09-09T08:26:42;29.40;99.90
44435;DHT22;30138;20.964;105.830;2022-09-09T08:32:03;29.40;99.90
44435;DHT22;30138;20.964;105.830;2022-09-09T08:37:12;29.40;99.90
44435;DHT22;30138;20.964;105.830;2022-09-09T08:42:31;29.40;99.90
44435;DHT22;30138;20.964;105.830;2022-09-09T08:47:51;29.40;99.90
44435;DHT22;30138;20.964;105.830;2022-09-09T08:53:05;29.40;99.90
44435;DHT22;30138;20.964;105.830;2022-09-09T08:58:18;29.40;99.90
44435;DHT22;30138;20.964;105.830;2022-09-09T09:03:37;29.40;99.90
44435;DHT22;30138;20.964;105.830;2022-09-09T09:08:53;29.40;99.90
44435;DHT22;30138;20.964;105.830;2022-09-09T09:14:10;29.40;99.90
44435;DHT22;30138;20.964;105.830;2022-09-09T09:19:20;29.40;99.90
44435;DHT22;30138;20.964;105.830;2022-09-09T09:24:39;29.40;99.90
44435;DHT22;30138;20.964;105.830;2022-09-09T09:29:51;29.40;99.90
44435;DHT22;30138;20.964;105.830;2022-09-09T09:35:02;29.40;99.90
44435;DHT22;30138;20.964;105.830;2022-09-09T09:40:13;29.40;99.90
44435;DHT22;30138;20.964;105.830;2022-09-09T09:45:28;29.40;99.90
44435;DHT22;30138;20.964;105.830;2022-09-09T09:50:48;29.40;99.90
44435;DHT22;30138;20.964;105.830;2022-09-09T09:55:58;29.40;99.90
44435;DHT22;30138;20.964;105.830;2022-09-09T10:01:21;29.40;99.90
44435;DHT22;30138;20.964;105.830;2022-09-09T10:06:34;29.40;99.90
44435;DHT22;30138;20.964;105.830;2022-09-09T10:11:46;29.40;99.90
44435;DHT22;30138;20.964;105.830;2022-09-09T10:17:10;29.40;99.90
44435;DHT22;30138;20.964;105.830;2022-09-09T10:22:26;29.40;99.90
44435;DHT22;30138;20.964;105.830;2022-09-09T10:27:38;29.40;99.90
44435;DHT22;30138;20.964;105.830;2022-09-09T10:33:04;29.40;99.90
44435;DHT22;30138;20.964;105.830;2022-09-09T10:38:22;29.40;99.90
44435;DHT22;30138;20.964;105.830;2022-09-09T10:43:52;29.40;99.90
44435;DHT22;30138;20.964;105.830;2022-09-09T10:49:25;29.40;99.90
44435;DHT22;30138;20.964;105.830;2022-09-09T10:54:51;29.40;99.90
44435;DHT22;30138;20.964;105.830;2022-09-09T11:00:03;29.40;99.90
44435;DHT22;30138;20.964;105.830;2022-09-09T11:05:14;29.40;99.90
44435;DHT22;30138;20.964;105.830;2022-09-09T11:10:34;29.40;99.90
44435;DHT22;30138;20.964;105.830;2022-09-09T11:15:46;29.30;99.90
44435;DHT22;30138;20.964;105.830;2022-09-09T11:21:00;29.30;99.90
44435;DHT22;30138;20.964;105.830;2022-09-09T11:26:21;29.30;99.90
44435;DHT22;30138;20.964;105.830;2022-09-09T11:31:44;29.30;99.90
44435;DHT22;30138;20.964;105.830;2022-09-09T11:37:04;29.30;99.90
44435;DHT22;30138;20.964;105.830;2022-09-09T11:42:24;29.30;99.90
44435;DHT22;30138;20.964;105.830;2022-09-09T11:47:31;29.30;99.90
44435;DHT22;30138;20.964;105.830;2022-09-09T11:52:42;29.30;99.90
44435;DHT22;30138;20.964;105.830;2022-09-09T11:57:58;29.30;99.90
44435;DHT22;30138;20.964;105.830;2022-09-09T12:03:05;29.30;99.90
44435;DHT22;30138;20.964;105.830;2022-09-09T12:08:24;29.30;99.90
44435;DHT22;30138;20.964;105.830;2022-09-09T12:13:32;29.20;99.90
44435;DHT22;30138;20.964;105.830;2022-09-09T12:18:40;29.30;99.90
44435;DHT22;30138;20.964;105.830;2022-09-09T12:23:52;29.30;99.90
44435;DHT22;30138;20.964;105.830;2022-09-09T12:29:20;29.30;99.90
44435;DHT22;30138;20.964;105.830;2022-09-09T12:34:40;29.30;99.90
44435;DHT22;30138;20.964;105.830;2022-09-09T12:39:56;29.30;99.90
44435;DHT22;30138;20.964;105.830;2022-09-09T12:45:16;29.30;99.90
44435;DHT22;30138;20.964;105.830;2022-09-09T12:50:27;29.20;99.90
44435;DHT22;30138;20.964;105.830;2022-09-09T12:55:38;29.20;99.90
44435;DHT22;30138;20.964;105.830;2022-09-09T13:00:54;29.20;99.90
44435;DHT22;30138;20.964;105.830;2022-09-09T13:06:12;29.20;99.90
44435;DHT22;30138;20.964;105.830;2022-09-09T13:11:29;29.20;99.90
44435;DHT22;30138;20.964;105.830;2022-09-09T13:16:38;29.20;99.90
44435;DHT22;30138;20.964;105.830;2022-09-09T13:21:46;29.20;99.90
44435;DHT22;30138;20.964;105.830;2022-09-09T13:26:57;29.20;99.90
44435;DHT22;30138;20.964;105.830;2022-09-09T13:32:12;29.10;99.90
44435;DHT22;30138;20.964;105.830;2022-09-09T13:37:26;29.20;99.90
44435;DHT22;30138;20.964;105.830;2022-09-09T13:42:39;29.20;99.90
44435;DHT22;30138;20.964;105.830;2022-09-09T13:47:48;29.20;99.90
44435;DHT22;30138;20.964;105.830;2022-09-09T13:52:56;29.20;99.90
44435;DHT22;30138;20.964;105.830;2022-09-09T13:58:05;29.10;99.90
44435;DHT22;30138;20.964;105.830;2022-09-09T14:03:11;29.10;99.90
44435;DHT22;30138;20.964;105.830;2022-09-09T14:08:24;29.10;99.90
44435;DHT22;30138;20.964;105.830;2022-09-09T14:13:42;29.10;99.90
44435;DHT22;30138;20.964;105.830;2022-09-09T14:18:49;29.10;99.90
44435;DHT22;30138;20.964;105.830;2022-09-09T14:24:00;29.10;99.90
44435;DHT22;30138;20.964;105.830;2022-09-09T14:29:10;29.20;99.90
44435;DHT22;30138;20.964;105.830;2022-09-09T14:34:17;29.20;99.90
44435;DHT22;30138;20.964;105.830;2022-09-09T14:39:23;29.20;99.90
44435;DHT22;30138;20.964;105.830;2022-09-09T14:44:32;29.20;99.90
44435;DHT22;30138;20.964;105.830;2022-09-09T14:49:42;29.20;99.90
44435;DHT22;30138;20.964;105.830;2022-09-09T14:54:52;29.20;99.90
44435;DHT22;30138;20.964;105.830;2022-09-09T15:00:00;29.20;99.90
44435;DHT22;30138;20.964;105.830;2022-09-09T15:05:08;29.20;99.90
44435;DHT22;30138;20.964;105.830;2022-09-09T15:10:15;29.20;99.90
44435;DHT22;30138;20.964;105.830;2022-09-09T15:15:25;29.20;99.90
44435;DHT22;30138;20.964;105.830;2022-09-09T15:20:32;29.20;99.90
44435;DHT22;30138;20.964;105.830;2022-09-09T15:25:53;29.20;99.90
44435;DHT22;30138;20.964;105.830;2022-09-09T15:31:05;29.20;99.90
44435;DHT22;30138;20.964;105.830;2022-09-09T15:36:15;29.20;99.90
44435;DHT22;30138;20.964;105.830;2022-09-09T15:41:23;29.20;99.90
44435;DHT22;30138;20.964;105.830;2022-09-09T15:46:34;29.20;99.90
44435;DHT22;30138;20.964;105.830;2022-09-09T15:51:46;29.20;99.90
44435;DHT22;30138;20.964;105.830;2022-09-09T15:56:55;29.20;99.90
44435;DHT22;30138;20.964;105.830;2022-09-09T16:02:05;29.20;99.90
44435;DHT22;30138;20.964;105.830;2022-09-09T16:07:13;29.20;99.90
44435;DHT22;30138;20.964;105.830;2022-09-09T16:12:25;29.20;99.90
44435;DHT22;30138;20.964;105.830;2022-09-09T16:17:35;29.10;99.90
44435;DHT22;30138;20.964;105.830;2022-09-09T16:22:43;29.10;99.90
44435;DHT22;30138;20.964;105.830;2022-09-09T16:27:49;29.10;99.90
44435;DHT22;30138;20.964;105.830;2022-09-09T16:32:58;29.10;99.90
44435;DHT22;30138;20.964;105.830;2022-09-09T16:38:06;29.10;99.90
44435;DHT22;30138;20.964;105.830;2022-09-09T16:43:12;29.10;99.90
44435;DHT22;30138;20.964;105.830;2022-09-09T16:48:21;29.10;99.90
44435;DHT22;30138;20.964;105.830;2022-09-09T16:53:28;29.10;99.90
44435;DHT22;30138;20.964;105.830;2022-09-09T16:58:35;29.10;99.90
44435;DHT22;30138;20.964;105.830;2022-09-09T17:03:45;29.10;99.90
44435;DHT22;30138;20.964;105.830;2022-09-09T17:08:55;29.10;99.90
44435;DHT22;30138;20.964;105.830;2022-09-09T17:14:04;29.10;99.90
44435;DHT22;30138;20.964;105.830;2022-09-09T17:19:14;29.10;99.90
44435;DHT22;30138;20.964;105.830;2022-09-09T17:24:20;29.10;99.90
44435;DHT22;30138;20.964;105.830;2022-09-09T17:29:28;29.00;99.90
44435;DHT22;30138;20.964;105.830;2022-09-09T17:34:40;29.00;99.90
44435;DHT22;30138;20.964;105.830;2022-09-09T17:39:47;29.00;99.90
44435;DHT22;30138;20.964;105.830;2022-09-09T17:44:58;29.00;99.90
44435;DHT22;30138;20.964;105.830;2022-09-09T17:50:07;29.00;99.90
44435;DHT22;30138;20.964;105.830;2022-09-09T17:55:15;29.00;99.90
44435;DHT22;30138;20.964;105.830;2022-09-09T18:00:24;29.00;99.90
44435;DHT22;30138;20.964;105.830;2022-09-09T18:05:34;29.00;99.90
44435;DHT22;30138;20.964;105.830;2022-09-09T18:10:40;29.00;99.90
44435;DHT22;30138;20.964;105.830;2022-09-09T18:15:47;29.00;99.90
44435;DHT22;30138;20.964;105.830;2022-09-09T18:21:02;29.00;99.90
44435;DHT22;30138;20.964;105.830;2022-09-09T18:26:10;29.00;99.90
44435;DHT22;30138;20.964;105.830;2022-09-09T18:31:19;29.00;99.90
44435;DHT22;30138;20.964;105.830;2022-09-09T18:36:33;28.90;99.90
44435;DHT22;30138;20.964;105.830;2022-09-09T18:41:42;28.90;99.90
44435;DHT22;30138;20.964;105.830;2022-09-09T18:46:49;29.00;99.90
44435;DHT22;30138;20.964;105.830;2022-09-09T18:51:57;28.90;99.90
44435;DHT22;30138;20.964;105.830;2022-09-09T18:57:05;28.90;99.90
44435;DHT22;30138;20.964;105.830;2022-09-09T19:02:12;28.90;99.90
44435;DHT22;30138;20.964;105.830;2022-09-09T19:07:20;28.90;99.90
44435;DHT22;30138;20.964;105.830;2022-09-09T19:12:28;28.90;99.90
44435;DHT22;30138;20.964;105.830;2022-09-09T19:17:34;28.90;99.90
44435;DHT22;30138;20.964;105.830;2022-09-09T19:22:42;28.90;99.90
44435;DHT22;30138;20.964;105.830;2022-09-09T19:27:49;28.90;99.90
44435;DHT22;30138;20.964;105.830;2022-09-09T19:32:56;28.90;99.90
44435;DHT22;30138;20.964;105.830;2022-09-09T19:38:04;28.90;99.90
44435;DHT22;30138;20.964;105.830;2022-09-09T19:43:11;28.90;99.90
44435;DHT22;30138;20.964;105.830;2022-09-09T19:48:18;28.90;99.90
44435;DHT22;30138;20.964;105.830;2022-09-09T19:53:27;28.90;99.90
44435;DHT22;30138;20.964;105.830;2022-09-09T19:58:34;28.80;99.90
44435;DHT22;30138;20.964;105.830;2022-09-09T20:03:42;28.90;99.90
44435;DHT22;30138;20.964;105.830;2022-09-09T20:08:52;28.80;99.90
44435;DHT22;30138;20.964;105.830;2022-09-09T20:13:59;28.80;99.90
44435;DHT22;30138;20.964;105.830;2022-09-09T20:19:07;28.80;99.90
44435;DHT22;30138;20.964;105.830;2022-09-09T20:24:18;28.80;99.90
44435;DHT22;30138;20.964;105.830;2022-09-09T20:29:26;28.80;99.90
44435;DHT22;30138;20.964;105.830;2022-09-09T20:34:33;28.80;99.90
44435;DHT22;30138;20.964;105.830;2022-09-09T20:39:42;28.80;99.90
44435;DHT22;30138;20.964;105.830;2022-09-09T20:44:48;28.80;99.90
44435;DHT22;30138;20.964;105.830;2022-09-09T20:49:55;28.80;99.90
44435;DHT22;30138;20.964;105.830;2022-09-09T20:55:05;28.80;99.90
44435;DHT22;30138;20.964;105.830;2022-09-09T21:00:13;28.80;99.90
44435;DHT22;30138;20.964;105.830;2022-09-09T21:05:20;28.80;99.90
44435;DHT22;30138;20.964;105.830;2022-09-09T21:10:30;28.80;99.90
44435;DHT22;30138;20.964;105.830;2022-09-09T21:15:36;28.80;99.90
44435;DHT22;30138;20.964;105.830;2022-09-09T21:20:43;28.80;99.90
44435;DHT22;30138;20.964;105.830;2022-09-09T21:25:53;28.80;99.90
44435;DHT22;30138;20.964;105.830;2022-09-09T21:30:59;28.80;99.90
44435;DHT22;30138;20.964;105.830;2022-09-09T21:36:07;28.80;99.90
44435;DHT22;30138;20.964;105.830;2022-09-09T21:41:17;28.80;99.90
44435;DHT22;30138;20.964;105.830;2022-09-09T21:46:24;28.80;99.90
44435;DHT22;30138;20.964;105.830;2022-09-09T21:51:31;28.80;99.90
44435;DHT22;30138;20.964;105.830;2022-09-09T21:56:38;28.80;99.90
44435;DHT22;30138;20.964;105.830;2022-09-09T22:01:46;28.80;99.90
44435;DHT22;30138;20.964;105.830;2022-09-09T22:06:53;28.80;99.90
44435;DHT22;30138;20.964;105.830;2022-09-09T22:12:02;28.80;99.90
44435;DHT22;30138;20.964;105.830;2022-09-09T22:17:08;28.70;99.90
44435;DHT22;30138;20.964;105.830;2022-09-09T22:22:15;28.70;99.90
44435;DHT22;30138;20.964;105.830;2022-09-09T22:27:24;28.70;99.90
44435;DHT22;30138;20.964;105.830;2022-09-09T22:32:30;28.70;99.90
44435;DHT22;30138;20.964;105.830;2022-09-09T22:37:37;28.80;99.90
44435;DHT22;30138;20.964;105.830;2022-09-09T22:42:46;28.70;99.90
44435;DHT22;30138;20.964;105.830;2022-09-09T22:47:52;28.70;99.90
44435;DHT22;30138;20.964;105.830;2022-09-09T22:52:59;28.70;99.90
44435;DHT22;30138;20.964;105.830;2022-09-09T22:58:08;28.70;99.90
44435;DHT22;30138;20.964;105.830;2022-09-09T23:03:15;28.70;99.90
44435;DHT22;30138;20.964;105.830;2022-09-09T23:08:25;28.70;99.90
44435;DHT22;30138;20.964;105.830;2022-09-09T23:13:37;28.70;99.90
44435;DHT22;30138;20.964;105.830;2022-09-09T23:18:44;28.70;99.90
44435;DHT22;30138;20.964;105.830;2022-09-09T23:23:52;28.70;99.90
44435;DHT22;30138;20.964;105.830;2022-09-09T23:29:01;28.70;99.90
44435;DHT22;30138;20.964;105.830;2022-09-09T23:34:07;28.70;99.90
44435;DHT22;30138;20.964;105.830;2022-09-09T23:39:14;28.70;99.90
44435;DHT22;30138;20.964;105.830;2022-09-09T23:44:23;28.70;99.90
44435;DHT22;30138;20.964;105.830;2022-09-09T23:49:29;28.70;99.90
44435;DHT22;30138;20.964;105.830;2022-09-09T23:54:36;28.60;99.90
44435;DHT22;30138;20.964;105.830;2022-09-09T23:59:45;28.70;99.90
